createdAt,value
2023-02-11T00:00:39.156Z,30
2023-02-11T00:01:39.160Z,32
2023-02-11T00:02:39.184Z,29
2023-02-11T00:03:39.279Z,31
2023-02-11T00:04:39.160Z,31
2023-02-11T00:05:39.204Z,29
2023-02-11T00:06:39.173Z,30
2023-02-11T00:07:39.167Z,33
2023-02-11T00:08:39.182Z,33
2023-02-11T00:09:39.177Z,29
2023-02-11T00:10:39.180Z,31
2023-02-11T00:11:39.170Z,30
2023-02-11T00:12:39.164Z,31
2023-02-11T00:13:39.162Z,29
2023-02-11T00:14:39.175Z,32
2023-02-11T00:15:39.169Z,30
2023-02-11T00:16:39.272Z,29
2023-02-11T00:17:39.161Z,33
2023-02-11T00:18:39.180Z,32
2023-02-11T00:19:39.205Z,37
2023-02-11T00:20:39.209Z,32
2023-02-11T00:21:39.177Z,32
2023-02-11T00:22:39.561Z,31
2023-02-11T00:23:39.195Z,29
2023-02-11T00:24:39.171Z,33
2023-02-11T00:25:39.559Z,33
2023-02-11T00:26:39.218Z,34
2023-02-11T00:27:39.225Z,32
2023-02-11T00:28:39.179Z,31
2023-02-11T00:29:39.173Z,35
2023-02-11T00:30:39.288Z,33
2023-02-11T00:31:39.350Z,32
2023-02-11T00:32:39.168Z,33
2023-02-11T00:33:39.211Z,32
2023-02-11T00:34:39.157Z,32
2023-02-11T00:35:39.177Z,35
2023-02-11T00:36:39.155Z,30
2023-02-11T00:37:39.175Z,31
2023-02-11T00:38:39.192Z,34
2023-02-11T00:39:39.165Z,29
2023-02-11T00:40:39.167Z,31
2023-02-11T00:41:39.165Z,32
2023-02-11T00:42:39.161Z,33
2023-02-11T00:43:39.192Z,32
2023-02-11T00:44:39.168Z,31
2023-02-11T00:45:39.169Z,31
2023-02-11T00:46:39.268Z,30
2023-02-11T00:47:39.208Z,32
2023-02-11T00:48:39.223Z,31
2023-02-11T00:49:39.170Z,30
2023-02-11T00:50:39.174Z,31
2023-02-11T00:51:39.166Z,31
2023-02-11T00:52:39.212Z,28
2023-02-11T00:53:39.251Z,28
2023-02-11T00:54:39.180Z,27
2023-02-11T00:55:39.167Z,28
2023-02-11T00:56:39.267Z,30
2023-02-11T00:57:45.881Z,31
2023-02-11T00:58:39.189Z,28
2023-02-11T00:59:39.168Z,29
2023-02-11T01:00:39.171Z,29
2023-02-11T01:01:39.209Z,32
2023-02-11T01:02:39.187Z,31
2023-02-11T01:03:39.172Z,31
2023-02-11T01:04:39.201Z,29
2023-02-11T01:05:39.212Z,30
2023-02-11T01:06:39.151Z,29
2023-02-11T01:07:39.174Z,27
2023-02-11T01:08:39.194Z,29
2023-02-11T01:09:39.168Z,30
2023-02-11T01:10:39.156Z,31
2023-02-11T01:11:39.169Z,31
2023-02-11T01:13:39.197Z,31
2023-02-11T01:14:39.161Z,28
2023-02-11T01:15:39.175Z,29
2023-02-11T01:16:39.158Z,30
2023-02-11T01:17:39.164Z,28
2023-02-11T01:18:39.195Z,30
2023-02-11T01:19:39.176Z,28
2023-02-11T01:20:39.157Z,30
2023-02-11T01:21:39.423Z,29
2023-02-11T01:22:39.167Z,29
2023-02-11T01:23:39.228Z,28
2023-02-11T01:24:39.164Z,29
2023-02-11T01:25:39.156Z,28
2023-02-11T01:26:39.175Z,28
2023-02-11T01:27:39.172Z,32
2023-02-11T01:28:39.285Z,32
2023-02-11T01:29:39.151Z,33
2023-02-11T01:30:39.202Z,30
2023-02-11T01:31:39.376Z,30
2023-02-11T01:32:39.169Z,29
2023-02-11T01:33:39.176Z,28
2023-02-11T01:34:39.160Z,29
2023-02-11T01:35:39.164Z,30
2023-02-11T01:36:39.162Z,28
2023-02-11T01:37:39.197Z,29
2023-02-11T01:38:39.186Z,28
2023-02-11T01:39:39.154Z,29
2023-02-11T01:40:39.169Z,31
2023-02-11T01:41:39.163Z,27
2023-02-11T01:42:39.168Z,26
2023-02-11T01:43:39.180Z,33
2023-02-11T01:44:39.170Z,30
2023-02-11T01:45:39.167Z,30
2023-02-11T01:46:39.269Z,28
2023-02-11T01:47:39.156Z,28
2023-02-11T01:48:39.179Z,30
2023-02-11T01:49:39.158Z,28
2023-02-11T01:50:39.172Z,28
2023-02-11T01:51:39.314Z,30
2023-02-11T01:52:39.201Z,30
2023-02-11T01:53:39.564Z,28
2023-02-11T01:54:39.159Z,31
2023-02-11T01:55:39.173Z,31
2023-02-11T01:56:39.211Z,29
2023-02-11T01:58:39.258Z,30
2023-02-11T01:59:39.168Z,30
2023-02-11T02:00:39.201Z,29
2023-02-11T02:01:39.192Z,26
2023-02-11T02:02:39.148Z,32
2023-02-11T02:03:39.191Z,29
2023-02-11T02:04:39.172Z,31
2023-02-11T02:05:39.173Z,30
2023-02-11T02:06:39.175Z,29
2023-02-11T02:07:39.165Z,29
2023-02-11T02:08:39.199Z,29
2023-02-11T02:09:39.185Z,30
2023-02-11T02:10:39.155Z,28
2023-02-11T02:11:39.161Z,28
2023-02-11T02:12:39.538Z,30
2023-02-11T02:13:39.184Z,29
2023-02-11T02:14:39.174Z,27
2023-02-11T02:15:39.265Z,29
2023-02-11T02:16:39.228Z,32
2023-02-11T02:17:39.158Z,32
2023-02-11T02:18:39.180Z,28
2023-02-11T02:19:39.154Z,31
2023-02-11T02:20:39.163Z,28
2023-02-11T02:21:39.158Z,30
2023-02-11T02:22:39.152Z,30
2023-02-11T02:23:39.210Z,26
2023-02-11T02:24:39.223Z,29
2023-02-11T02:25:39.156Z,28
2023-02-11T02:26:39.149Z,31
2023-02-11T02:27:39.160Z,32
2023-02-11T02:28:39.170Z,29
2023-02-11T02:29:39.150Z,26
2023-02-11T02:30:39.246Z,27
2023-02-11T02:31:39.266Z,31
2023-02-11T02:32:39.163Z,29
2023-02-11T02:33:39.158Z,25
2023-02-11T02:34:39.160Z,28
2023-02-11T02:35:39.150Z,29
2023-02-11T02:36:39.163Z,28
2023-02-11T02:37:39.137Z,27
2023-02-11T02:38:39.191Z,28
2023-02-11T02:39:39.170Z,28
2023-02-11T02:40:39.154Z,27
2023-02-11T02:41:39.154Z,31
2023-02-11T02:42:39.163Z,30
2023-02-11T02:43:39.175Z,30
2023-02-11T02:44:39.170Z,28
2023-02-11T02:45:39.146Z,30
2023-02-11T02:46:39.186Z,29
2023-02-11T02:47:39.159Z,28
2023-02-11T02:48:39.183Z,29
2023-02-11T02:49:39.154Z,29
2023-02-11T02:50:39.149Z,29
2023-02-11T02:51:39.157Z,28
2023-02-11T02:52:39.145Z,31
2023-02-11T02:53:39.173Z,26
2023-02-11T02:54:39.195Z,28
2023-02-11T02:55:39.164Z,32
2023-02-11T02:56:39.144Z,30
2023-02-11T02:57:39.147Z,28
2023-02-11T02:58:39.192Z,27
2023-02-11T02:59:39.169Z,29
2023-02-11T03:00:39.215Z,29
2023-02-11T03:01:39.158Z,30
2023-02-11T03:02:39.160Z,31
2023-02-11T03:03:39.257Z,31
2023-02-11T03:04:39.169Z,27
2023-02-11T03:05:39.149Z,30
2023-02-11T03:06:39.151Z,31
2023-02-11T03:07:39.154Z,28
2023-02-11T03:08:39.240Z,29
2023-02-11T03:09:39.154Z,29
2023-02-11T03:10:39.154Z,28
2023-02-11T03:11:39.202Z,31
2023-02-11T03:12:39.171Z,33
2023-02-11T03:13:39.186Z,32
2023-02-11T03:14:39.144Z,32
2023-02-11T03:15:39.154Z,28
2023-02-11T03:16:39.410Z,30
2023-02-11T03:17:39.209Z,30
2023-02-11T03:18:39.159Z,32
2023-02-11T03:19:39.158Z,33
2023-02-11T03:20:39.178Z,33
2023-02-11T03:21:39.147Z,32
2023-02-11T03:22:39.203Z,32
2023-02-11T03:23:39.187Z,32
2023-02-11T03:24:39.199Z,31
2023-02-11T03:25:39.188Z,30
2023-02-11T03:26:39.164Z,29
2023-02-11T03:27:39.145Z,30
2023-02-11T03:28:39.172Z,32
2023-02-11T03:29:39.180Z,32
2023-02-11T03:30:39.164Z,30
2023-02-11T03:31:39.246Z,31
2023-02-11T03:32:39.146Z,32
2023-02-11T03:33:39.171Z,33
2023-02-11T03:34:39.178Z,33
2023-02-11T03:35:39.155Z,33
2023-02-11T03:36:39.152Z,31
2023-02-11T03:37:39.151Z,31
2023-02-11T03:38:39.177Z,31
2023-02-11T03:39:39.179Z,31
2023-02-11T03:40:39.156Z,33
2023-02-11T03:41:39.159Z,32
2023-02-11T03:42:39.171Z,34
2023-02-11T03:43:39.186Z,34
2023-02-11T03:44:39.142Z,30
2023-02-11T03:45:39.295Z,33
2023-02-11T03:46:39.155Z,33
2023-02-11T03:47:39.180Z,31
2023-02-11T03:48:39.178Z,32
2023-02-11T03:50:39.158Z,28
2023-02-11T03:51:39.148Z,31
2023-02-11T03:52:39.152Z,33
2023-02-11T03:53:39.203Z,30
2023-02-11T03:54:39.166Z,32
2023-02-11T03:55:39.174Z,34
2023-02-11T03:56:39.185Z,31
2023-02-11T03:57:39.154Z,34
2023-02-11T03:58:39.184Z,31
2023-02-11T03:59:39.168Z,28
2023-02-11T04:00:39.162Z,32
2023-02-11T04:01:39.159Z,30
2023-02-11T04:02:39.152Z,30
2023-02-11T04:03:39.176Z,31
2023-02-11T04:04:39.158Z,31
2023-02-11T04:05:39.168Z,29
2023-02-11T04:06:39.166Z,33
2023-02-11T04:07:39.194Z,30
2023-02-11T04:08:39.181Z,33
2023-02-11T04:09:39.162Z,30
2023-02-11T04:10:39.156Z,30
2023-02-11T04:11:39.166Z,32
2023-02-11T04:12:39.145Z,30
2023-02-11T04:13:39.188Z,31
2023-02-11T04:14:39.153Z,28
2023-02-11T04:15:39.153Z,32
2023-02-11T04:16:39.191Z,31
2023-02-11T04:17:39.139Z,31
2023-02-11T04:18:39.278Z,29
2023-02-11T04:19:39.166Z,29
2023-02-11T04:20:39.150Z,31
2023-02-11T04:21:39.177Z,33
2023-02-11T04:22:39.165Z,31
2023-02-11T04:23:39.381Z,33
2023-02-11T04:24:39.325Z,33
2023-02-11T04:25:39.141Z,30
2023-02-11T04:26:39.164Z,29
2023-02-11T04:27:39.209Z,31
2023-02-11T04:28:39.269Z,31
2023-02-11T04:29:39.157Z,28
2023-02-11T04:30:39.250Z,32
2023-02-11T04:31:39.197Z,30
2023-02-11T04:32:39.161Z,30
2023-02-11T04:33:39.216Z,34
2023-02-11T04:34:39.168Z,31
2023-02-11T04:35:39.172Z,30
2023-02-11T04:36:39.165Z,30
2023-02-11T04:37:39.144Z,32
2023-02-11T04:38:39.180Z,31
2023-02-11T04:39:39.164Z,34
2023-02-11T04:40:39.160Z,32
2023-02-11T04:41:39.166Z,32
2023-02-11T04:42:39.161Z,27
2023-02-11T04:43:39.172Z,30
2023-02-11T04:44:39.148Z,28
2023-02-11T04:45:39.185Z,30
2023-02-11T04:46:39.158Z,30
2023-02-11T04:47:39.159Z,29
2023-02-11T04:48:39.208Z,32
2023-02-11T04:49:39.160Z,30
2023-02-11T04:50:39.151Z,28
2023-02-11T04:51:39.150Z,31
2023-02-11T04:52:39.166Z,30
2023-02-11T04:53:39.185Z,32
2023-02-11T04:54:39.138Z,28
2023-02-11T04:55:39.148Z,29
2023-02-11T04:56:39.157Z,28
2023-02-11T04:57:39.148Z,31
2023-02-11T04:58:39.177Z,30
2023-02-11T04:59:39.171Z,28
2023-02-11T05:00:39.166Z,28
2023-02-11T05:01:39.526Z,27
2023-02-11T05:02:39.163Z,29
2023-02-11T05:03:39.231Z,30
2023-02-11T05:04:39.155Z,27
2023-02-11T05:05:39.148Z,29
2023-02-11T05:06:39.150Z,28
2023-02-11T05:07:39.157Z,25
2023-02-11T05:08:39.238Z,27
2023-02-11T05:09:39.137Z,29
2023-02-11T05:10:39.167Z,28
2023-02-11T05:11:39.158Z,27
2023-02-11T05:12:39.191Z,30
2023-02-11T05:13:39.177Z,27
2023-02-11T05:14:39.142Z,26
2023-02-11T05:15:39.153Z,28
2023-02-11T05:16:39.293Z,31
2023-02-11T05:17:39.138Z,31
2023-02-11T05:18:39.159Z,32
2023-02-11T05:19:39.148Z,29
2023-02-11T05:20:39.206Z,29
2023-02-11T05:21:40.119Z,29
2023-02-11T05:22:39.147Z,30
2023-02-11T05:23:39.382Z,30
2023-02-11T05:24:39.151Z,29
2023-02-11T05:25:39.152Z,31
2023-02-11T05:26:39.149Z,29
2023-02-11T05:27:39.153Z,32
2023-02-11T05:28:39.190Z,29
2023-02-11T05:29:39.193Z,28
2023-02-11T05:30:39.342Z,28
2023-02-11T05:31:39.162Z,27
2023-02-11T05:32:39.157Z,32
2023-02-11T05:33:39.180Z,26
2023-02-11T05:34:39.140Z,27
2023-02-11T05:35:39.185Z,30
2023-02-11T05:36:39.158Z,30
2023-02-11T05:37:39.210Z,32
2023-02-11T05:38:39.184Z,31
2023-02-11T05:39:39.144Z,32
2023-02-11T05:40:39.150Z,28
2023-02-11T05:41:39.169Z,29
2023-02-11T05:42:39.158Z,32
2023-02-11T05:43:39.150Z,28
2023-02-11T05:44:39.158Z,29
2023-02-11T05:45:39.157Z,27
2023-02-11T05:46:39.165Z,29
2023-02-11T05:47:39.140Z,30
2023-02-11T05:48:39.163Z,32
2023-02-11T05:49:39.167Z,31
2023-02-11T05:50:39.144Z,36
2023-02-11T05:51:39.132Z,31
2023-02-11T05:52:39.149Z,32
2023-02-11T05:53:39.178Z,28
2023-02-11T05:54:39.151Z,28
2023-02-11T05:55:39.150Z,32
2023-02-11T05:56:39.130Z,31
2023-02-11T05:57:39.205Z,30
2023-02-11T05:58:39.168Z,26
2023-02-11T05:59:39.140Z,30
2023-02-11T06:00:39.177Z,25
2023-02-11T06:01:39.147Z,24
2023-02-11T06:02:39.295Z,30
2023-02-11T06:03:39.237Z,27
2023-02-11T06:04:39.148Z,27
2023-02-11T06:05:39.143Z,27
2023-02-11T06:06:39.155Z,26
2023-02-11T06:07:39.143Z,29
2023-02-11T06:08:39.490Z,29
2023-02-11T06:09:39.397Z,28
2023-02-11T06:10:39.142Z,26
2023-02-11T06:11:39.136Z,29
2023-02-11T06:12:39.450Z,31
2023-02-11T06:13:39.172Z,29
2023-02-11T06:14:39.168Z,26
2023-02-11T06:15:39.201Z,29
2023-02-11T06:16:39.145Z,26
2023-02-11T06:17:39.160Z,26
2023-02-11T06:18:39.185Z,30
2023-02-11T06:19:39.183Z,30
2023-02-11T06:20:39.148Z,28
2023-02-11T06:21:44.142Z,28
2023-02-11T06:22:39.180Z,25
2023-02-11T06:23:39.188Z,31
2023-02-11T06:24:58.945Z,30
2023-02-11T06:25:39.137Z,29
2023-02-11T06:26:39.134Z,32
2023-02-11T06:27:39.162Z,29
2023-02-11T06:28:41.919Z,28
2023-02-11T06:29:39.141Z,28
2023-02-11T06:30:39.141Z,29
2023-02-11T06:31:39.584Z,30
2023-02-11T06:32:44.379Z,30
2023-02-11T06:33:39.172Z,31
2023-02-11T06:34:39.139Z,28
2023-02-11T06:35:39.152Z,31
2023-02-11T06:36:39.149Z,28
2023-02-11T06:37:39.147Z,27
2023-02-11T06:38:39.178Z,27
2023-02-11T06:39:39.147Z,28
2023-02-11T06:40:39.139Z,27
2023-02-11T06:41:39.149Z,28
2023-02-11T06:42:39.421Z,30
2023-02-11T06:43:39.163Z,27
2023-02-11T06:44:39.153Z,32
2023-02-11T06:45:39.159Z,28
2023-02-11T06:46:39.236Z,26
2023-02-11T06:47:39.158Z,29
2023-02-11T06:48:39.183Z,26
2023-02-11T06:49:39.147Z,30
2023-02-11T06:50:39.145Z,26
2023-02-11T06:51:39.286Z,30
2023-02-11T06:52:39.154Z,28
2023-02-11T06:53:39.165Z,30
2023-02-11T06:54:39.157Z,26
2023-02-11T06:55:39.150Z,26
2023-02-11T06:56:39.150Z,29
2023-02-11T06:57:39.140Z,27
2023-02-11T06:58:39.159Z,27
2023-02-11T06:59:39.141Z,27
2023-02-11T07:00:39.137Z,27
2023-02-11T07:01:39.196Z,27
2023-02-11T07:02:39.225Z,23
2023-02-11T07:03:39.182Z,25
2023-02-11T07:04:39.156Z,29
2023-02-11T07:05:39.144Z,27
2023-02-11T07:06:39.190Z,25
2023-02-11T07:07:39.152Z,27
2023-02-11T07:08:39.166Z,26
2023-02-11T07:09:39.146Z,25
2023-02-11T07:10:39.152Z,27
2023-02-11T07:11:39.151Z,26
2023-02-11T07:12:39.143Z,28
2023-02-11T07:13:39.163Z,28
2023-02-11T07:14:39.147Z,29
2023-02-11T07:15:39.144Z,27
2023-02-11T07:16:39.275Z,28
2023-02-11T07:17:39.141Z,27
2023-02-11T07:18:39.217Z,27
2023-02-11T07:19:39.132Z,28
2023-02-11T07:20:39.138Z,29
2023-02-11T07:21:39.139Z,28
2023-02-11T07:22:39.171Z,26
2023-02-11T07:23:39.233Z,25
2023-02-11T07:24:39.143Z,26
2023-02-11T07:25:39.152Z,26
2023-02-11T07:26:39.147Z,26
2023-02-11T07:27:39.148Z,29
2023-02-11T07:28:39.146Z,27
2023-02-11T07:29:39.146Z,28
2023-02-11T07:30:39.150Z,27
2023-02-11T07:31:39.339Z,26
2023-02-11T07:32:39.152Z,26
2023-02-11T07:33:39.236Z,26
2023-02-11T07:34:39.185Z,26
2023-02-11T07:35:41.643Z,25
2023-02-11T07:36:39.150Z,25
2023-02-11T07:37:39.143Z,27
2023-02-11T07:38:39.190Z,26
2023-02-11T07:39:39.135Z,28
2023-02-11T07:40:39.262Z,30
2023-02-11T07:41:39.149Z,22
2023-02-11T07:42:39.142Z,25
2023-02-11T07:43:39.161Z,24
2023-02-11T07:44:39.136Z,27
2023-02-11T07:45:39.153Z,24
2023-02-11T07:46:39.180Z,26
2023-02-11T07:47:39.134Z,23
2023-02-11T07:48:39.170Z,24
2023-02-11T07:49:39.141Z,25
2023-02-11T07:50:39.141Z,24
2023-02-11T07:51:39.139Z,25
2023-02-11T07:52:39.137Z,22
2023-02-11T07:53:39.167Z,24
2023-02-11T07:54:39.146Z,26
2023-02-11T07:55:39.130Z,25
2023-02-11T07:56:39.132Z,26
2023-02-11T07:57:39.182Z,29
2023-02-11T07:58:39.181Z,27
2023-02-11T07:59:39.139Z,26
2023-02-11T08:00:39.173Z,24
2023-02-11T08:01:39.138Z,26
2023-02-11T08:02:39.162Z,27
2023-02-11T08:03:39.168Z,25
2023-02-11T08:04:39.163Z,22
2023-02-11T08:05:39.141Z,25
2023-02-11T08:06:39.149Z,25
2023-02-11T08:07:39.141Z,25
2023-02-11T08:08:39.178Z,25
2023-02-11T08:09:39.134Z,26
2023-02-11T08:10:39.137Z,23
2023-02-11T08:11:39.151Z,25
2023-02-11T08:12:39.137Z,25
2023-02-11T08:13:39.167Z,26
2023-02-11T08:14:39.144Z,24
2023-02-11T08:15:39.135Z,25
2023-02-11T08:16:39.367Z,26
2023-02-11T08:17:39.135Z,24
2023-02-11T08:18:40.932Z,25
2023-02-11T08:19:40.141Z,25
2023-02-11T08:20:39.131Z,25
2023-02-11T08:21:39.162Z,23
2023-02-11T08:22:39.158Z,25
2023-02-11T08:23:39.160Z,25
2023-02-11T08:24:39.128Z,25
2023-02-11T08:25:39.124Z,26
2023-02-11T08:26:39.154Z,26
2023-02-11T08:27:39.139Z,24
2023-02-11T08:28:39.149Z,25
2023-02-11T08:29:39.180Z,27
2023-02-11T08:30:39.134Z,28
2023-02-11T08:31:39.487Z,27
2023-02-11T08:32:39.145Z,23
2023-02-11T08:33:39.121Z,25
2023-02-11T08:34:39.140Z,27
2023-02-11T08:35:39.149Z,25
2023-02-11T08:36:39.146Z,25
2023-02-11T08:37:39.134Z,25
2023-02-11T08:38:39.192Z,26
2023-02-11T08:39:39.112Z,26
2023-02-11T08:40:39.146Z,25
2023-02-11T08:41:39.137Z,25
2023-02-11T08:42:39.128Z,27
2023-02-11T08:43:39.141Z,26
2023-02-11T08:44:39.145Z,26
2023-02-11T08:45:39.324Z,26
2023-02-11T08:46:39.121Z,24
2023-02-11T08:47:39.129Z,25
2023-02-11T08:48:39.150Z,25
2023-02-11T08:49:39.146Z,30
2023-02-11T08:50:39.139Z,25
2023-02-11T08:51:39.150Z,25
2023-02-11T08:52:39.134Z,25
2023-02-11T08:53:39.149Z,27
2023-02-11T08:54:39.180Z,24
2023-02-11T08:55:39.121Z,27
2023-02-11T08:56:39.165Z,23
2023-02-11T08:57:39.135Z,26
2023-02-11T08:58:39.131Z,27
2023-02-11T08:59:39.136Z,30
2023-02-11T09:00:39.140Z,26
2023-02-11T09:01:39.295Z,30
2023-02-11T09:02:39.274Z,30
2023-02-11T09:03:39.141Z,31
2023-02-11T09:04:39.151Z,29
2023-02-11T09:05:39.136Z,29
2023-02-11T09:06:39.152Z,28
2023-02-11T09:07:39.217Z,26
2023-02-11T09:08:39.126Z,28
2023-02-11T09:09:39.235Z,27
2023-02-11T09:10:39.123Z,31
2023-02-11T09:11:39.135Z,27
2023-02-11T09:12:39.114Z,27
2023-02-11T09:13:39.136Z,27
2023-02-11T09:14:39.151Z,25
2023-02-11T09:15:39.139Z,28
2023-02-11T09:16:39.276Z,28
2023-02-11T09:17:39.121Z,27
2023-02-11T09:18:45.866Z,26
2023-02-11T09:19:39.212Z,29
2023-02-11T09:20:39.129Z,29
2023-02-11T09:21:39.127Z,27
2023-02-11T09:22:39.135Z,27
2023-02-11T09:23:39.143Z,34
2023-02-11T09:24:39.179Z,30
2023-02-11T09:25:39.127Z,30
2023-02-11T09:26:39.186Z,30
2023-02-11T09:27:39.162Z,29
2023-02-11T09:28:39.173Z,28
2023-02-11T09:29:39.143Z,29
2023-02-11T09:30:39.345Z,27
2023-02-11T09:31:39.279Z,28
2023-02-11T09:32:39.120Z,28
2023-02-11T09:33:39.141Z,28
2023-02-11T09:34:39.159Z,27
2023-02-11T09:35:39.138Z,29
2023-02-11T09:36:39.306Z,27
2023-02-11T09:37:39.154Z,24
2023-02-11T09:38:39.146Z,25
2023-02-11T09:39:39.129Z,26
2023-02-11T09:40:39.124Z,26
2023-02-11T09:41:39.143Z,26
2023-02-11T09:42:39.134Z,28
2023-02-11T09:43:39.119Z,30
2023-02-11T09:44:39.153Z,29
2023-02-11T09:45:39.134Z,29
2023-02-11T09:46:39.137Z,28
2023-02-11T09:47:39.122Z,28
2023-02-11T09:48:39.126Z,28
2023-02-11T09:49:39.181Z,25
2023-02-11T09:50:39.124Z,26
2023-02-11T09:51:39.133Z,25
2023-02-11T09:52:39.139Z,24
2023-02-11T09:53:39.150Z,25
2023-02-11T09:54:39.148Z,27
2023-02-11T09:55:39.143Z,27
2023-02-11T09:56:39.128Z,27
2023-02-11T09:57:39.130Z,26
2023-02-11T09:58:39.201Z,28
2023-02-11T09:59:39.146Z,24
2023-02-11T10:00:39.145Z,27
2023-02-11T10:01:39.163Z,25
2023-02-11T10:02:39.140Z,25
2023-02-11T10:03:39.141Z,28
2023-02-11T10:04:39.202Z,26
2023-02-11T10:05:39.137Z,26
2023-02-11T10:06:39.125Z,25
2023-02-11T10:07:39.127Z,25
2023-02-11T10:08:39.160Z,28
2023-02-11T10:09:39.169Z,27
2023-02-11T10:10:39.128Z,28
2023-02-11T10:11:39.140Z,25
2023-02-11T10:12:39.171Z,26
2023-02-11T10:13:41.504Z,26
2023-02-11T10:14:39.141Z,30
2023-02-11T10:15:39.302Z,23
2023-02-11T10:16:39.143Z,25
2023-02-11T10:17:39.125Z,28
2023-02-11T10:19:39.160Z,27
2023-02-11T10:20:39.156Z,27
2023-02-11T10:21:39.136Z,26
2023-02-11T10:22:39.130Z,27
2023-02-11T10:23:39.148Z,27
2023-02-11T10:24:39.159Z,26
2023-02-11T10:25:39.196Z,27
2023-02-11T10:26:39.135Z,28
2023-02-11T10:27:39.182Z,28
2023-02-11T10:28:39.235Z,24
2023-02-11T10:29:39.156Z,25
2023-02-11T10:30:39.266Z,26
2023-02-11T10:31:39.283Z,26
2023-02-11T10:32:39.128Z,25
2023-02-11T10:33:39.126Z,27
2023-02-11T10:34:39.184Z,26
2023-02-11T10:35:39.153Z,26
2023-02-11T10:36:39.199Z,25
2023-02-11T10:37:39.126Z,23
2023-02-11T10:38:39.125Z,26
2023-02-11T10:39:39.210Z,28
2023-02-11T10:40:39.141Z,26
2023-02-11T10:41:39.130Z,24
2023-02-11T10:42:39.135Z,25
2023-02-11T10:43:39.132Z,31
2023-02-11T10:44:39.147Z,26
2023-02-11T10:45:39.133Z,28
2023-02-11T10:46:39.178Z,27
2023-02-11T10:47:39.134Z,29
2023-02-11T10:48:39.159Z,29
2023-02-11T10:49:39.171Z,25
2023-02-11T10:50:39.126Z,28
2023-02-11T10:51:39.125Z,26
2023-02-11T10:52:39.131Z,25
2023-02-11T10:53:39.149Z,28
2023-02-11T10:54:39.176Z,25
2023-02-11T10:55:39.139Z,27
2023-02-11T10:56:39.138Z,25
2023-02-11T10:57:39.148Z,24
2023-02-11T10:58:39.125Z,25
2023-02-11T10:59:39.162Z,27
2023-02-11T11:00:39.148Z,26
2023-02-11T11:01:39.136Z,26
2023-02-11T11:02:39.123Z,25
2023-02-11T11:03:39.135Z,24
2023-02-11T11:04:39.226Z,25
2023-02-11T11:05:39.116Z,26
2023-02-11T11:06:39.151Z,25
2023-02-11T11:07:39.126Z,25
2023-02-11T11:08:39.150Z,27
2023-02-11T11:09:39.157Z,25
2023-02-11T11:10:39.150Z,25
2023-02-11T11:11:39.143Z,25
2023-02-11T11:12:41.135Z,22
2023-02-11T11:13:39.130Z,22
2023-02-11T11:14:39.143Z,25
2023-02-11T11:15:39.150Z,27
2023-02-11T11:16:39.140Z,24
2023-02-11T11:17:39.134Z,23
2023-02-11T11:18:39.125Z,24
2023-02-11T11:19:39.170Z,27
2023-02-11T11:20:39.132Z,24
2023-02-11T11:21:39.140Z,26
2023-02-11T11:22:39.134Z,24
2023-02-11T11:23:39.126Z,24
2023-02-11T11:24:39.176Z,25
2023-02-11T11:25:39.140Z,22
2023-02-11T11:26:39.137Z,24
2023-02-11T11:27:39.142Z,23
2023-02-11T11:28:39.127Z,27
2023-02-11T11:29:39.169Z,24
2023-02-11T11:30:39.192Z,23
2023-02-11T11:31:39.255Z,25
2023-02-11T11:32:39.138Z,26
2023-02-11T11:33:39.139Z,23
2023-02-11T11:34:39.200Z,23
2023-02-11T11:35:39.126Z,23
2023-02-11T11:36:39.128Z,24
2023-02-11T11:37:39.131Z,25
2023-02-11T11:38:39.127Z,24
2023-02-11T11:39:39.185Z,23
2023-02-11T11:40:39.121Z,24
2023-02-11T11:41:39.148Z,22
2023-02-11T11:42:39.157Z,24
2023-02-11T11:43:39.123Z,27
2023-02-11T11:44:39.190Z,25
2023-02-11T11:45:39.127Z,25
2023-02-11T11:46:39.215Z,27
2023-02-11T11:47:39.130Z,25
2023-02-11T11:48:39.141Z,23
2023-02-11T11:49:39.252Z,25
2023-02-11T11:50:39.116Z,24
2023-02-11T11:51:39.137Z,28
2023-02-11T11:52:39.131Z,25
2023-02-11T11:53:39.122Z,24
2023-02-11T11:54:39.145Z,25
2023-02-11T11:55:39.191Z,23
2023-02-11T11:56:39.124Z,25
2023-02-11T11:57:39.120Z,25
2023-02-11T11:58:39.118Z,25
2023-02-11T11:59:39.145Z,24
2023-02-11T12:00:39.125Z,24
2023-02-11T12:01:39.132Z,24
2023-02-11T12:02:39.173Z,25
2023-02-11T12:03:39.128Z,26
2023-02-11T12:04:39.156Z,23
2023-02-11T12:05:39.121Z,24
2023-02-11T12:06:39.184Z,24
2023-02-11T12:07:39.117Z,27
2023-02-11T12:08:39.128Z,24
2023-02-11T12:09:39.158Z,26
2023-02-11T12:10:39.126Z,24
2023-02-11T12:11:39.107Z,23
2023-02-11T12:12:39.150Z,24
2023-02-11T12:13:39.132Z,24
2023-02-11T12:14:39.176Z,27
2023-02-11T12:15:39.122Z,24
2023-02-11T12:16:39.157Z,26
2023-02-11T12:17:39.135Z,25
2023-02-11T12:18:39.318Z,26
2023-02-11T12:19:39.149Z,25
2023-02-11T12:20:39.120Z,22
2023-02-11T12:21:39.138Z,26
2023-02-11T12:22:39.118Z,24
2023-02-11T12:23:39.186Z,25
2023-02-11T12:24:39.177Z,24
2023-02-11T12:25:39.132Z,24
2023-02-11T12:26:39.115Z,26
2023-02-11T12:27:39.117Z,26
2023-02-11T12:28:39.449Z,26
2023-02-11T12:29:39.146Z,25
2023-02-11T12:30:39.191Z,25
2023-02-11T12:31:39.170Z,25
2023-02-11T12:32:39.138Z,24
2023-02-11T12:33:39.292Z,21
2023-02-11T12:34:39.138Z,23
2023-02-11T12:35:39.130Z,24
2023-02-11T12:36:39.106Z,26
2023-02-11T12:37:39.119Z,26
2023-02-11T12:38:39.477Z,24
2023-02-11T12:39:39.349Z,24
2023-02-11T12:40:39.124Z,23
2023-02-11T12:41:39.117Z,23
2023-02-11T12:42:39.130Z,21
2023-02-11T12:43:39.662Z,24
2023-02-11T12:44:39.576Z,24
2023-02-11T12:45:39.184Z,23
2023-02-11T12:46:39.139Z,26
2023-02-11T12:47:39.135Z,25
2023-02-11T12:48:39.474Z,24
2023-02-11T12:49:39.143Z,23
2023-02-11T12:50:39.119Z,27
2023-02-11T12:51:39.139Z,25
2023-02-11T12:52:39.149Z,23
2023-02-11T12:53:39.564Z,24
2023-02-11T12:54:39.173Z,23
2023-02-11T12:55:39.130Z,26
2023-02-11T12:56:39.111Z,24
2023-02-11T12:57:39.128Z,22
2023-02-11T12:58:45.482Z,24
2023-02-11T12:59:39.137Z,22
2023-02-11T13:00:39.134Z,23
2023-02-11T13:01:39.271Z,24
2023-02-11T13:02:39.203Z,22
2023-02-11T13:03:39.127Z,23
2023-02-11T13:04:39.132Z,25
2023-02-11T13:05:39.137Z,21
2023-02-11T13:06:39.134Z,21
2023-02-11T13:07:39.123Z,26
2023-02-11T13:08:39.129Z,23
2023-02-11T13:09:39.155Z,22
2023-02-11T13:10:39.139Z,24
2023-02-11T13:11:39.120Z,21
2023-02-11T13:12:39.126Z,22
2023-02-11T13:13:39.145Z,21
2023-02-11T13:14:39.199Z,23
2023-02-11T13:15:39.130Z,24
2023-02-11T13:16:39.190Z,25
2023-02-11T13:17:39.168Z,22
2023-02-11T13:18:39.128Z,23
2023-02-11T13:19:39.136Z,25
2023-02-11T13:20:39.138Z,25
2023-02-11T13:21:39.127Z,24
2023-02-11T13:22:39.151Z,24
2023-02-11T13:23:39.114Z,26
2023-02-11T13:24:39.153Z,26
2023-02-11T13:25:39.185Z,25
2023-02-11T13:26:39.154Z,23
2023-02-11T13:27:39.126Z,23
2023-02-11T13:28:39.190Z,28
2023-02-11T13:29:39.156Z,25
2023-02-11T13:30:39.186Z,24
2023-02-11T13:31:39.256Z,25
2023-02-11T13:32:39.123Z,26
2023-02-11T13:33:39.131Z,23
2023-02-11T13:34:39.157Z,23
2023-02-11T13:35:39.130Z,22
2023-02-11T13:36:39.128Z,27
2023-02-11T13:37:39.140Z,23
2023-02-11T13:38:39.139Z,24
2023-02-11T13:39:39.232Z,22
2023-02-11T13:40:39.248Z,25
2023-02-11T13:41:39.122Z,24
2023-02-11T13:42:39.131Z,28
2023-02-11T13:43:39.127Z,26
2023-02-11T13:44:39.176Z,26
2023-02-11T13:45:39.197Z,27
2023-02-11T13:46:39.138Z,27
2023-02-11T13:47:39.134Z,27
2023-02-11T13:48:39.120Z,26
2023-02-11T13:49:39.156Z,27
2023-02-11T13:50:39.134Z,26
2023-02-11T13:51:39.157Z,27
2023-02-11T13:52:39.117Z,25
2023-02-11T13:53:39.126Z,26
2023-02-11T13:54:39.141Z,24
2023-02-11T13:55:39.137Z,27
2023-02-11T13:56:39.308Z,24
2023-02-11T13:57:39.115Z,24
2023-02-11T13:58:39.113Z,26
2023-02-11T13:59:39.139Z,25
2023-02-11T14:00:39.207Z,26
2023-02-11T14:01:39.208Z,26
2023-02-11T14:02:39.216Z,25
2023-02-11T14:03:39.168Z,24
2023-02-11T14:04:39.140Z,23
2023-02-11T14:05:39.117Z,24
2023-02-11T14:06:39.123Z,24
2023-02-11T14:07:39.125Z,26
2023-02-11T14:08:39.649Z,29
2023-02-11T14:09:39.152Z,26
2023-02-11T14:10:39.138Z,28
2023-02-11T14:11:39.139Z,25
2023-02-11T14:12:39.132Z,27
2023-02-11T14:13:39.118Z,25
2023-02-11T14:14:39.165Z,25
2023-02-11T14:15:39.138Z,24
2023-02-11T14:16:39.531Z,25
2023-02-11T14:17:39.128Z,26
2023-02-11T14:18:39.147Z,25
2023-02-11T14:19:39.192Z,27